Startpagina
METAR-TAF:

METAR-TAF

Vliegvelden :

Radom-Sadków

Radom, Polen

breedte: 51-23-21N, lengte: 21-12-49E, hoogte: 186 m

Actueel weer

Dit bericht is 41 minuten geleden gemaakt, om 06:00 UTC
Wind 7 kt uit het westnoordwesten
Temperatuur 15°C
Vochtigheid 94%
Druk 1010 hPa
Zicht: 6000 m
Gebroken wolken op 3700 ft
lichte regen

METAR: EPRA 170600Z 30007KT 6000 -RA BKN037 15/14 Q1010

Tijdstip: 08:41 (06:41 UTC)

Verwachting

Dit bericht is 39 minuten geleden gemaakt, om 06:02 UTC
Verwachting geldig van 17 om 06 UTC tot 17 om 15 UTC
Wind 10 kt uit het noordwesten
Zicht: 8000 m
Gebroken wolken op 3000 ft
lichte regen
Tijdelijke
van 17 om 06 UTC tot 17 om 12 UTC
Zicht: 4000 m
Gebroken wolken op 500 ft
Gebroken wolken op 2000 ft
regen

TAF: EPRA 170602Z 1706/1715 31010KT 8000 -RA BKN030 TEMPO 1706/1712 4000 RA BKN005 BKN020

Waarnemingen en weersverwachtingen van meer dan 4000 vliegvelden (METAR en TAF).

De beschikbare stations zijn de gele en rode punten op de kaart.

Ga met uw muis naar het station om de naam te zien.

Klik dan om waarnemingen en weersverwachtingen te zien.

kaart wijzigen: klik op de groene knoppen met een zwart kruis om in te zoomen, op de groene knop met een streepje om uit te zoomen of op de groene pijlen voor aangrenzende kaarten.


METAR-TAF: